sensor_id;sensor_type;location;lat;lon;timestamp;P1;durP1;ratioP1;P2;durP2;ratioP2
12155;SDS011;6141;49.092;8.516;2022-08-01T00:02:04;4.67;;;2.40;;
12155;SDS011;6141;49.092;8.516;2022-08-01T00:04:34;3.43;;;2.40;;
12155;SDS011;6141;49.092;8.516;2022-08-01T00:07:02;3.67;;;2.33;;
12155;SDS011;6141;49.092;8.516;2022-08-01T00:09:31;3.20;;;2.23;;
12155;SDS011;6141;49.092;8.516;2022-08-01T00:11:59;2.23;;;2.10;;
12155;SDS011;6141;49.092;8.516;2022-08-01T00:14:30;2.33;;;2.13;;
12155;SDS011;6141;49.092;8.516;2022-08-01T00:17:02;2.83;;;2.20;;
12155;SDS011;6141;49.092;8.516;2022-08-01T00:19:33;3.97;;;2.53;;
12155;SDS011;6141;49.092;8.516;2022-08-01T00:22:01;4.33;;;2.37;;
12155;SDS011;6141;49.092;8.516;2022-08-01T00:24:30;3.33;;;2.03;;
12155;SDS011;6141;49.092;8.516;2022-08-01T00:26:58;4.40;;;2.60;;
12155;SDS011;6141;49.092;8.516;2022-08-01T00:29:27;2.90;;;2.30;;
12155;SDS011;6141;49.092;8.516;2022-08-01T00:32:19;2.70;;;2.27;;
12155;SDS011;6141;49.092;8.516;2022-08-01T00:34:48;3.57;;;2.20;;
12155;SDS011;6141;49.092;8.516;2022-08-01T00:37:17;3.10;;;2.43;;
12155;SDS011;6141;49.092;8.516;2022-08-01T00:39:46;2.50;;;2.30;;
12155;SDS011;6141;49.092;8.516;2022-08-01T00:42:23;3.33;;;2.17;;
12155;SDS011;6141;49.092;8.516;2022-08-01T00:44:54;3.03;;;2.20;;
12155;SDS011;6141;49.092;8.516;2022-08-01T00:47:25;4.10;;;2.17;;
12155;SDS011;6141;49.092;8.516;2022-08-01T00:49:54;5.33;;;2.40;;
12155;SDS011;6141;49.092;8.516;2022-08-01T00:52:23;3.73;;;2.33;;
12155;SDS011;6141;49.092;8.516;2022-08-01T00:54:52;3.83;;;2.10;;
12155;SDS011;6141;49.092;8.516;2022-08-01T00:57:20;2.47;;;2.27;;
12155;SDS011;6141;49.092;8.516;2022-08-01T01:00:11;2.40;;;2.20;;
12155;SDS011;6141;49.092;8.516;2022-08-01T01:02:40;4.90;;;2.50;;
12155;SDS011;6141;49.092;8.516;2022-08-01T01:05:10;2.50;;;2.03;;
12155;SDS011;6141;49.092;8.516;2022-08-01T01:07:40;4.10;;;2.73;;
12155;SDS011;6141;49.092;8.516;2022-08-01T01:10:16;3.53;;;2.20;;
12155;SDS011;6141;49.092;8.516;2022-08-01T01:12:50;4.00;;;2.30;;
12155;SDS011;6141;49.092;8.516;2022-08-01T01:15:25;3.17;;;2.27;;
12155;SDS011;6141;49.092;8.516;2022-08-01T01:18:00;2.60;;;2.30;;
12155;SDS011;6141;49.092;8.516;2022-08-01T01:20:32;3.73;;;2.63;;
12155;SDS011;6141;49.092;8.516;2022-08-01T01:23:15;3.20;;;2.20;;
12155;SDS011;6141;49.092;8.516;2022-08-01T01:26:07;8.10;;;2.70;;
12155;SDS011;6141;49.092;8.516;2022-08-01T01:29:03;8.63;;;2.37;;
12155;SDS011;6141;49.092;8.516;2022-08-01T01:31:38;4.97;;;2.20;;
12155;SDS011;6141;49.092;8.516;2022-08-01T01:34:11;2.50;;;2.30;;
12155;SDS011;6141;49.092;8.516;2022-08-01T01:36:41;2.43;;;2.23;;
12155;SDS011;6141;49.092;8.516;2022-08-01T01:39:11;6.77;;;2.87;;
12155;SDS011;6141;49.092;8.516;2022-08-01T01:41:41;3.43;;;2.23;;
12155;SDS011;6141;49.092;8.516;2022-08-01T01:44:13;3.93;;;2.40;;
12155;SDS011;6141;49.092;8.516;2022-08-01T01:46:51;2.80;;;2.37;;
12155;SDS011;6141;49.092;8.516;2022-08-01T01:49:31;2.70;;;2.50;;
12155;SDS011;6141;49.092;8.516;2022-08-01T01:52:01;5.40;;;2.43;;
12155;SDS011;6141;49.092;8.516;2022-08-01T01:54:33;2.73;;;2.53;;
12155;SDS011;6141;49.092;8.516;2022-08-01T01:57:05;2.40;;;2.20;;
12155;SDS011;6141;49.092;8.516;2022-08-01T01:59:37;3.43;;;2.30;;
12155;SDS011;6141;49.092;8.516;2022-08-01T02:02:07;3.37;;;2.37;;
12155;SDS011;6141;49.092;8.516;2022-08-01T02:04:42;5.20;;;2.40;;
12155;SDS011;6141;49.092;8.516;2022-08-01T02:07:12;4.37;;;2.17;;
12155;SDS011;6141;49.092;8.516;2022-08-01T02:09:45;4.27;;;2.47;;
12155;SDS011;6141;49.092;8.516;2022-08-01T02:12:17;3.03;;;2.67;;
12155;SDS011;6141;49.092;8.516;2022-08-01T02:14:53;2.77;;;2.57;;
12155;SDS011;6141;49.092;8.516;2022-08-01T02:17:25;2.70;;;2.23;;
12155;SDS011;6141;49.092;8.516;2022-08-01T02:19:58;5.60;;;2.50;;
12155;SDS011;6141;49.092;8.516;2022-08-01T02:22:33;2.53;;;2.30;;
12155;SDS011;6141;49.092;8.516;2022-08-01T02:25:06;11.87;;;2.33;;
12155;SDS011;6141;49.092;8.516;2022-08-01T02:27:46;3.10;;;2.80;;
12155;SDS011;6141;49.092;8.516;2022-08-01T02:31:13;2.57;;;2.37;;
12155;SDS011;6141;49.092;8.516;2022-08-01T02:34:17;3.40;;;2.30;;
12155;SDS011;6141;49.092;8.516;2022-08-01T02:37:47;3.77;;;2.70;;
12155;SDS011;6141;49.092;8.516;2022-08-01T02:41:28;2.80;;;2.60;;
12155;SDS011;6141;49.092;8.516;2022-08-01T02:44:37;3.50;;;2.60;;
12155;SDS011;6141;49.092;8.516;2022-08-01T02:47:49;5.33;;;2.67;;
12155;SDS011;6141;49.092;8.516;2022-08-01T02:50:19;3.30;;;2.50;;
12155;SDS011;6141;49.092;8.516;2022-08-01T02:52:50;6.80;;;2.67;;
12155;SDS011;6141;49.092;8.516;2022-08-01T02:55:20;4.70;;;2.63;;
12155;SDS011;6141;49.092;8.516;2022-08-01T02:57:50;2.90;;;2.70;;
12155;SDS011;6141;49.092;8.516;2022-08-01T03:00:26;3.00;;;2.70;;
12155;SDS011;6141;49.092;8.516;2022-08-01T03:02:58;5.00;;;2.57;;
12155;SDS011;6141;49.092;8.516;2022-08-01T03:05:29;5.13;;;2.90;;
12155;SDS011;6141;49.092;8.516;2022-08-01T03:07:59;3.03;;;2.70;;
12155;SDS011;6141;49.092;8.516;2022-08-01T03:10:38;4.10;;;2.50;;
12155;SDS011;6141;49.092;8.516;2022-08-01T03:13:08;3.97;;;2.60;;
12155;SDS011;6141;49.092;8.516;2022-08-01T03:15:38;6.13;;;3.00;;
12155;SDS011;6141;49.092;8.516;2022-08-01T03:18:11;4.47;;;2.47;;
12155;SDS011;6141;49.092;8.516;2022-08-01T03:20:40;3.20;;;2.37;;
12155;SDS011;6141;49.092;8.516;2022-08-01T03:23:11;4.03;;;2.57;;
12155;SDS011;6141;49.092;8.516;2022-08-01T03:25:40;5.47;;;2.20;;
12155;SDS011;6141;49.092;8.516;2022-08-01T03:28:12;2.90;;;2.40;;
12155;SDS011;6141;49.092;8.516;2022-08-01T03:30:43;4.87;;;2.70;;
12155;SDS011;6141;49.092;8.516;2022-08-01T03:33:14;7.63;;;2.50;;
12155;SDS011;6141;49.092;8.516;2022-08-01T03:35:44;3.47;;;2.30;;
12155;SDS011;6141;49.092;8.516;2022-08-01T03:38:17;2.80;;;2.50;;
12155;SDS011;6141;49.092;8.516;2022-08-01T03:40:49;4.33;;;2.60;;
12155;SDS011;6141;49.092;8.516;2022-08-01T03:43:22;3.73;;;2.60;;
12155;SDS011;6141;49.092;8.516;2022-08-01T03:45:54;6.57;;;3.00;;
12155;SDS011;6141;49.092;8.516;2022-08-01T03:48:32;3.00;;;2.70;;
12155;SDS011;6141;49.092;8.516;2022-08-01T03:51:07;3.00;;;2.70;;
12155;SDS011;6141;49.092;8.516;2022-08-01T03:53:36;3.03;;;2.50;;
12155;SDS011;6141;49.092;8.516;2022-08-01T03:56:08;4.67;;;2.60;;
12155;SDS011;6141;49.092;8.516;2022-08-01T03:58:38;3.40;;;3.00;;
12155;SDS011;6141;49.092;8.516;2022-08-01T04:01:09;3.73;;;3.00;;
12155;SDS011;6141;49.092;8.516;2022-08-01T04:03:43;4.60;;;2.63;;
12155;SDS011;6141;49.092;8.516;2022-08-01T04:06:12;4.10;;;2.70;;
12155;SDS011;6141;49.092;8.516;2022-08-01T04:08:41;3.23;;;2.70;;
12155;SDS011;6141;49.092;8.516;2022-08-01T04:11:09;3.33;;;2.77;;
12155;SDS011;6141;49.092;8.516;2022-08-01T04:13:38;3.27;;;2.80;;
12155;SDS011;6141;49.092;8.516;2022-08-01T04:16:10;8.07;;;2.90;;
12155;SDS011;6141;49.092;8.516;2022-08-01T04:18:42;7.50;;;3.03;;
12155;SDS011;6141;49.092;8.516;2022-08-01T04:21:11;4.50;;;2.97;;
12155;SDS011;6141;49.092;8.516;2022-08-01T04:23:40;2.80;;;2.60;;
12155;SDS011;6141;49.092;8.516;2022-08-01T04:26:17;4.40;;;2.40;;
12155;SDS011;6141;49.092;8.516;2022-08-01T04:28:47;3.10;;;2.60;;
12155;SDS011;6141;49.092;8.516;2022-08-01T04:31:18;4.10;;;2.67;;
12155;SDS011;6141;49.092;8.516;2022-08-01T04:33:51;3.90;;;2.60;;
12155;SDS011;6141;49.092;8.516;2022-08-01T04:36:23;3.97;;;2.73;;
12155;SDS011;6141;49.092;8.516;2022-08-01T04:38:58;5.63;;;3.10;;
12155;SDS011;6141;49.092;8.516;2022-08-01T04:41:29;7.17;;;3.10;;
12155;SDS011;6141;49.092;8.516;2022-08-01T04:43:58;4.17;;;2.87;;
12155;SDS011;6141;49.092;8.516;2022-08-01T04:46:29;4.77;;;2.90;;
12155;SDS011;6141;49.092;8.516;2022-08-01T04:49:03;5.23;;;2.90;;
12155;SDS011;6141;49.092;8.516;2022-08-01T04:51:35;3.53;;;2.70;;
12155;SDS011;6141;49.092;8.516;2022-08-01T04:54:05;3.70;;;3.00;;
12155;SDS011;6141;49.092;8.516;2022-08-01T04:56:34;3.30;;;2.50;;
12155;SDS011;6141;49.092;8.516;2022-08-01T04:59:02;4.57;;;2.70;;
12155;SDS011;6141;49.092;8.516;2022-08-01T05:01:48;3.87;;;2.73;;
12155;SDS011;6141;49.092;8.516;2022-08-01T05:04:19;4.67;;;2.83;;
12155;SDS011;6141;49.092;8.516;2022-08-01T05:06:48;4.53;;;3.10;;
12155;SDS011;6141;49.092;8.516;2022-08-01T05:09:16;5.07;;;2.60;;
12155;SDS011;6141;49.092;8.516;2022-08-01T05:11:45;3.10;;;2.80;;
12155;SDS011;6141;49.092;8.516;2022-08-01T05:14:13;5.13;;;2.87;;
12155;SDS011;6141;49.092;8.516;2022-08-01T05:16:42;5.77;;;2.97;;
12155;SDS011;6141;49.092;8.516;2022-08-01T05:19:10;5.03;;;3.10;;
12155;SDS011;6141;49.092;8.516;2022-08-01T05:21:40;4.50;;;2.57;;
12155;SDS011;6141;49.092;8.516;2022-08-01T05:24:09;4.80;;;2.43;;
12155;SDS011;6141;49.092;8.516;2022-08-01T05:26:39;4.50;;;2.80;;
12155;SDS011;6141;49.092;8.516;2022-08-01T05:29:11;4.87;;;2.90;;
12155;SDS011;6141;49.092;8.516;2022-08-01T05:31:39;4.53;;;2.60;;
12155;SDS011;6141;49.092;8.516;2022-08-01T05:34:08;3.57;;;2.93;;
12155;SDS011;6141;49.092;8.516;2022-08-01T05:36:42;3.00;;;2.80;;
12155;SDS011;6141;49.092;8.516;2022-08-01T05:39:12;2.63;;;2.40;;
12155;SDS011;6141;49.092;8.516;2022-08-01T05:41:44;6.13;;;2.97;;
12155;SDS011;6141;49.092;8.516;2022-08-01T05:44:12;4.23;;;2.77;;
12155;SDS011;6141;49.092;8.516;2022-08-01T05:46:40;5.87;;;2.70;;
12155;SDS011;6141;49.092;8.516;2022-08-01T05:49:09;4.43;;;2.80;;
12155;SDS011;6141;49.092;8.516;2022-08-01T05:51:37;3.77;;;2.67;;
12155;SDS011;6141;49.092;8.516;2022-08-01T05:54:07;6.10;;;2.60;;
12155;SDS011;6141;49.092;8.516;2022-08-01T05:56:37;4.93;;;2.77;;
12155;SDS011;6141;49.092;8.516;2022-08-01T05:59:05;4.97;;;2.80;;
12155;SDS011;6141;49.092;8.516;2022-08-01T06:01:33;3.50;;;2.60;;
12155;SDS011;6141;49.092;8.516;2022-08-01T06:04:02;3.93;;;2.87;;
12155;SDS011;6141;49.092;8.516;2022-08-01T06:06:31;5.60;;;2.80;;
12155;SDS011;6141;49.092;8.516;2022-08-01T06:08:59;4.27;;;2.83;;
12155;SDS011;6141;49.092;8.516;2022-08-01T06:11:29;2.80;;;2.40;;
12155;SDS011;6141;49.092;8.516;2022-08-01T06:13:58;5.23;;;2.70;;
12155;SDS011;6141;49.092;8.516;2022-08-01T06:16:31;4.93;;;2.47;;
12155;SDS011;6141;49.092;8.516;2022-08-01T06:18:59;3.50;;;2.73;;
12155;SDS011;6141;49.092;8.516;2022-08-01T06:21:27;5.70;;;2.43;;
12155;SDS011;6141;49.092;8.516;2022-08-01T06:24:02;5.23;;;2.70;;
12155;SDS011;6141;49.092;8.516;2022-08-01T06:26:32;6.13;;;2.50;;
12155;SDS011;6141;49.092;8.516;2022-08-01T06:29:01;4.53;;;2.70;;
12155;SDS011;6141;49.092;8.516;2022-08-01T06:31:30;4.60;;;2.50;;
12155;SDS011;6141;49.092;8.516;2022-08-01T06:33:59;3.40;;;2.47;;
12155;SDS011;6141;49.092;8.516;2022-08-01T06:36:28;2.70;;;2.30;;
12155;SDS011;6141;49.092;8.516;2022-08-01T06:38:58;4.93;;;2.40;;
12155;SDS011;6141;49.092;8.516;2022-08-01T06:41:33;2.90;;;2.40;;
12155;SDS011;6141;49.092;8.516;2022-08-01T06:44:02;3.27;;;2.27;;
12155;SDS011;6141;49.092;8.516;2022-08-01T06:46:31;3.47;;;2.00;;
12155;SDS011;6141;49.092;8.516;2022-08-01T06:49:01;2.30;;;1.70;;
12155;SDS011;6141;49.092;8.516;2022-08-01T06:51:29;4.13;;;2.30;;
12155;SDS011;6141;49.092;8.516;2022-08-01T06:53:58;3.80;;;2.07;;
12155;SDS011;6141;49.092;8.516;2022-08-01T06:56:26;2.40;;;1.53;;
12155;SDS011;6141;49.092;8.516;2022-08-01T06:58:56;2.80;;;1.50;;
12155;SDS011;6141;49.092;8.516;2022-08-01T07:01:27;3.53;;;1.80;;
12155;SDS011;6141;49.092;8.516;2022-08-01T07:04:00;2.53;;;1.60;;
12155;SDS011;6141;49.092;8.516;2022-08-01T07:06:28;2.20;;;1.60;;
12155;SDS011;6141;49.092;8.516;2022-08-01T07:08:57;6.37;;;2.00;;
12155;SDS011;6141;49.092;8.516;2022-08-01T07:11:34;4.23;;;1.70;;
12155;SDS011;6141;49.092;8.516;2022-08-01T07:14:04;3.03;;;1.70;;
12155;SDS011;6141;49.092;8.516;2022-08-01T07:16:33;2.30;;;1.77;;
12155;SDS011;6141;49.092;8.516;2022-08-01T07:19:01;1.97;;;1.40;;
12155;SDS011;6141;49.092;8.516;2022-08-01T07:21:30;1.43;;;1.33;;
12155;SDS011;6141;49.092;8.516;2022-08-01T07:24:07;1.90;;;1.40;;
12155;SDS011;6141;49.092;8.516;2022-08-01T07:26:39;2.57;;;1.20;;
12155;SDS011;6141;49.092;8.516;2022-08-01T07:29:21;2.03;;;1.20;;
12155;SDS011;6141;49.092;8.516;2022-08-01T07:31:50;4.47;;;1.40;;
12155;SDS011;6141;49.092;8.516;2022-08-01T07:34:19;2.87;;;1.47;;
12155;SDS011;6141;49.092;8.516;2022-08-01T07:36:48;1.73;;;1.27;;
12155;SDS011;6141;49.092;8.516;2022-08-01T07:39:17;1.10;;;0.97;;
12155;SDS011;6141;49.092;8.516;2022-08-01T07:41:45;2.53;;;1.00;;
12155;SDS011;6141;49.092;8.516;2022-08-01T07:44:34;3.77;;;1.00;;
12155;SDS011;6141;49.092;8.516;2022-08-01T07:47:03;1.83;;;1.10;;
12155;SDS011;6141;49.092;8.516;2022-08-01T07:49:32;1.53;;;1.00;;
12155;SDS011;6141;49.092;8.516;2022-08-01T07:52:05;1.87;;;1.00;;
12155;SDS011;6141;49.092;8.516;2022-08-01T07:54:34;2.60;;;1.00;;
12155;SDS011;6141;49.092;8.516;2022-08-01T07:57:03;1.00;;;0.80;;
12155;SDS011;6141;49.092;8.516;2022-08-01T07:59:31;1.77;;;0.90;;
12155;SDS011;6141;49.092;8.516;2022-08-01T08:02:02;2.53;;;1.10;;
12155;SDS011;6141;49.092;8.516;2022-08-01T08:04:31;3.70;;;1.10;;
12155;SDS011;6141;49.092;8.516;2022-08-01T08:06:59;1.40;;;1.10;;
12155;SDS011;6141;49.092;8.516;2022-08-01T08:09:28;2.50;;;1.37;;
12155;SDS011;6141;49.092;8.516;2022-08-01T08:12:03;1.63;;;1.20;;
12155;SDS011;6141;49.092;8.516;2022-08-01T08:14:32;2.07;;;1.30;;
12155;SDS011;6141;49.092;8.516;2022-08-01T08:17:02;3.33;;;1.30;;
12155;SDS011;6141;49.092;8.516;2022-08-01T08:19:31;1.53;;;1.27;;
12155;SDS011;6141;49.092;8.516;2022-08-01T08:22:04;3.47;;;1.47;;
12155;SDS011;6141;49.092;8.516;2022-08-01T08:24:33;1.43;;;1.23;;
12155;SDS011;6141;49.092;8.516;2022-08-01T08:27:13;1.93;;;1.53;;
12155;SDS011;6141;49.092;8.516;2022-08-01T08:29:44;1.77;;;1.20;;
12155;SDS011;6141;49.092;8.516;2022-08-01T08:32:14;2.73;;;1.27;;
12155;SDS011;6141;49.092;8.516;2022-08-01T08:34:44;4.27;;;1.43;;
12155;SDS011;6141;49.092;8.516;2022-08-01T08:37:12;2.57;;;1.30;;
12155;SDS011;6141;49.092;8.516;2022-08-01T08:39:41;2.10;;;1.40;;
12155;SDS011;6141;49.092;8.516;2022-08-01T08:42:11;3.87;;;1.60;;
12155;SDS011;6141;49.092;8.516;2022-08-01T08:44:40;2.30;;;1.40;;
12155;SDS011;6141;49.092;8.516;2022-08-01T08:47:14;4.30;;;1.30;;
12155;SDS011;6141;49.092;8.516;2022-08-01T08:49:46;3.07;;;1.43;;
12155;SDS011;6141;49.092;8.516;2022-08-01T08:52:21;1.57;;;1.20;;
12155;SDS011;6141;49.092;8.516;2022-08-01T08:54:50;3.17;;;1.20;;
12155;SDS011;6141;49.092;8.516;2022-08-01T08:57:20;1.57;;;1.20;;
12155;SDS011;6141;49.092;8.516;2022-08-01T08:59:49;2.80;;;1.23;;
12155;SDS011;6141;49.092;8.516;2022-08-01T09:02:22;3.77;;;1.40;;
12155;SDS011;6141;49.092;8.516;2022-08-01T09:04:50;2.20;;;1.60;;
12155;SDS011;6141;49.092;8.516;2022-08-01T09:07:20;2.17;;;1.40;;
12155;SDS011;6141;49.092;8.516;2022-08-01T09:09:49;2.50;;;1.40;;
12155;SDS011;6141;49.092;8.516;2022-08-01T09:12:19;2.73;;;1.20;;
12155;SDS011;6141;49.092;8.516;2022-08-01T09:14:47;3.57;;;1.40;;
12155;SDS011;6141;49.092;8.516;2022-08-01T09:17:20;1.40;;;1.30;;
12155;SDS011;6141;49.092;8.516;2022-08-01T09:19:51;3.00;;;1.40;;
12155;SDS011;6141;49.092;8.516;2022-08-01T09:22:23;2.23;;;1.40;;
12155;SDS011;6141;49.092;8.516;2022-08-01T09:24:59;2.67;;;1.73;;
12155;SDS011;6141;49.092;8.516;2022-08-01T09:27:30;1.50;;;1.33;;
12155;SDS011;6141;49.092;8.516;2022-08-01T09:30:07;1.70;;;1.40;;
12155;SDS011;6141;49.092;8.516;2022-08-01T09:35:24;2.03;;;1.50;;
12155;SDS011;6141;49.092;8.516;2022-08-01T09:38:13;1.30;;;1.20;;
12155;SDS011;6141;49.092;8.516;2022-08-01T09:40:47;2.23;;;1.30;;
12155;SDS011;6141;49.092;8.516;2022-08-01T09:43:17;11.27;;;1.90;;
12155;SDS011;6141;49.092;8.516;2022-08-01T09:45:46;3.33;;;1.60;;
12155;SDS011;6141;49.092;8.516;2022-08-01T09:48:20;1.53;;;1.30;;
12155;SDS011;6141;49.092;8.516;2022-08-01T09:50:55;3.50;;;1.60;;
12155;SDS011;6141;49.092;8.516;2022-08-01T09:53:39;3.13;;;1.60;;
12155;SDS011;6141;49.092;8.516;2022-08-01T09:56:18;3.50;;;1.47;;
12155;SDS011;6141;49.092;8.516;2022-08-01T09:58:49;3.40;;;1.47;;
12155;SDS011;6141;49.092;8.516;2022-08-01T10:01:26;3.83;;;1.63;;
12155;SDS011;6141;49.092;8.516;2022-08-01T10:04:08;6.87;;;1.53;;
12155;SDS011;6141;49.092;8.516;2022-08-01T10:06:39;2.63;;;1.50;;
12155;SDS011;6141;49.092;8.516;2022-08-01T10:09:26;2.47;;;1.40;;
12155;SDS011;6141;49.092;8.516;2022-08-01T10:12:06;3.87;;;1.40;;
12155;SDS011;6141;49.092;8.516;2022-08-01T10:14:42;2.27;;;1.37;;
12155;SDS011;6141;49.092;8.516;2022-08-01T10:17:16;1.50;;;1.40;;
12155;SDS011;6141;49.092;8.516;2022-08-01T10:19:50;1.40;;;1.10;;
12155;SDS011;6141;49.092;8.516;2022-08-01T10:22:23;1.40;;;1.10;;
12155;SDS011;6141;49.092;8.516;2022-08-01T10:24:55;2.13;;;1.30;;
12155;SDS011;6141;49.092;8.516;2022-08-01T10:27:25;3.80;;;1.47;;
12155;SDS011;6141;49.092;8.516;2022-08-01T10:30:04;3.10;;;1.37;;
12155;SDS011;6141;49.092;8.516;2022-08-01T10:32:48;2.07;;;1.30;;
12155;SDS011;6141;49.092;8.516;2022-08-01T10:35:22;1.80;;;1.30;;
12155;SDS011;6141;49.092;8.516;2022-08-01T10:38:13;1.70;;;1.40;;
12155;SDS011;6141;49.092;8.516;2022-08-01T10:40:44;1.40;;;1.30;;
12155;SDS011;6141;49.092;8.516;2022-08-01T10:43:15;2.73;;;1.40;;
12155;SDS011;6141;49.092;8.516;2022-08-01T10:45:47;1.83;;;1.30;;
12155;SDS011;6141;49.092;8.516;2022-08-01T10:48:19;2.33;;;1.40;;
12155;SDS011;6141;49.092;8.516;2022-08-01T10:50:58;2.20;;;1.13;;
12155;SDS011;6141;49.092;8.516;2022-08-01T10:53:28;2.63;;;1.27;;
12155;SDS011;6141;49.092;8.516;2022-08-01T10:56:08;2.77;;;1.37;;
12155;SDS011;6141;49.092;8.516;2022-08-01T10:58:42;4.53;;;1.43;;
12155;SDS011;6141;49.092;8.516;2022-08-01T11:01:21;2.77;;;1.40;;
12155;SDS011;6141;49.092;8.516;2022-08-01T11:04:06;1.70;;;1.23;;
12155;SDS011;6141;49.092;8.516;2022-08-01T11:09:39;3.47;;;1.60;;
12155;SDS011;6141;49.092;8.516;2022-08-01T11:12:17;1.63;;;1.30;;
12155;SDS011;6141;49.092;8.516;2022-08-01T11:17:59;1.53;;;1.30;;
12155;SDS011;6141;49.092;8.516;2022-08-01T11:20:32;2.50;;;1.50;;
12155;SDS011;6141;49.092;8.516;2022-08-01T11:23:18;1.47;;;1.37;;
12155;SDS011;6141;49.092;8.516;2022-08-01T11:29:15;2.03;;;1.47;;
12155;SDS011;6141;49.092;8.516;2022-08-01T11:31:48;2.03;;;1.40;;
12155;SDS011;6141;49.092;8.516;2022-08-01T11:34:18;1.93;;;1.30;;
12155;SDS011;6141;49.092;8.516;2022-08-01T11:36:49;1.90;;;1.20;;
12155;SDS011;6141;49.092;8.516;2022-08-01T11:40:15;3.13;;;1.40;;
12155;SDS011;6141;49.092;8.516;2022-08-01T11:42:48;5.10;;;1.40;;
12155;SDS011;6141;49.092;8.516;2022-08-01T11:45:17;3.33;;;1.53;;
12155;SDS011;6141;49.092;8.516;2022-08-01T11:47:47;1.83;;;1.40;;
12155;SDS011;6141;49.092;8.516;2022-08-01T11:50:34;2.00;;;1.30;;
12155;SDS011;6141;49.092;8.516;2022-08-01T11:53:05;1.60;;;1.43;;
12155;SDS011;6141;49.092;8.516;2022-08-01T11:55:46;1.60;;;1.20;;
12155;SDS011;6141;49.092;8.516;2022-08-01T11:58:20;7.63;;;1.70;;
12155;SDS011;6141;49.092;8.516;2022-08-01T12:00:57;4.50;;;1.40;;
12155;SDS011;6141;49.092;8.516;2022-08-01T12:03:27;3.53;;;1.30;;
12155;SDS011;6141;49.092;8.516;2022-08-01T12:06:02;1.70;;;1.30;;
12155;SDS011;6141;49.092;8.516;2022-08-01T12:08:32;2.90;;;1.60;;
12155;SDS011;6141;49.092;8.516;2022-08-01T12:11:04;2.07;;;1.33;;
12155;SDS011;6141;49.092;8.516;2022-08-01T12:13:51;1.93;;;1.00;;
12155;SDS011;6141;49.092;8.516;2022-08-01T12:16:26;2.07;;;1.20;;
12155;SDS011;6141;49.092;8.516;2022-08-01T12:18:58;1.87;;;1.50;;
12155;SDS011;6141;49.092;8.516;2022-08-01T12:21:40;2.83;;;1.30;;
12155;SDS011;6141;49.092;8.516;2022-08-01T12:24:21;1.97;;;1.13;;
12155;SDS011;6141;49.092;8.516;2022-08-01T12:27:03;1.30;;;1.20;;
12155;SDS011;6141;49.092;8.516;2022-08-01T12:29:33;3.13;;;1.27;;
12155;SDS011;6141;49.092;8.516;2022-08-01T12:32:20;2.13;;;1.33;;
12155;SDS011;6141;49.092;8.516;2022-08-01T12:35:02;1.97;;;1.20;;
12155;SDS011;6141;49.092;8.516;2022-08-01T12:37:35;2.43;;;1.60;;
12155;SDS011;6141;49.092;8.516;2022-08-01T12:40:12;1.37;;;1.27;;
12155;SDS011;6141;49.092;8.516;2022-08-01T12:42:48;1.87;;;1.07;;
12155;SDS011;6141;49.092;8.516;2022-08-01T12:45:19;2.73;;;1.57;;
12155;SDS011;6141;49.092;8.516;2022-08-01T12:47:51;3.70;;;1.30;;
12155;SDS011;6141;49.092;8.516;2022-08-01T12:50:27;2.10;;;1.20;;
12155;SDS011;6141;49.092;8.516;2022-08-01T12:53:00;1.40;;;1.20;;
12155;SDS011;6141;49.092;8.516;2022-08-01T12:55:32;5.47;;;1.50;;
12155;SDS011;6141;49.092;8.516;2022-08-01T12:58:29;9.40;;;1.50;;
12155;SDS011;6141;49.092;8.516;2022-08-01T13:01:03;2.13;;;1.17;;
12155;SDS011;6141;49.092;8.516;2022-08-01T13:06:22;2.00;;;1.00;;
12155;SDS011;6141;49.092;8.516;2022-08-01T13:20:23;1.50;;;1.20;;
12155;SDS011;6141;49.092;8.516;2022-08-01T13:23:20;1.27;;;1.00;;
12155;SDS011;6141;49.092;8.516;2022-08-01T13:26:59;2.75;;;0.90;;
12155;SDS011;6141;49.092;8.516;2022-08-01T13:34:26;1.80;;;1.10;;
12155;SDS011;6141;49.092;8.516;2022-08-01T13:38:37;1.77;;;1.00;;
12155;SDS011;6141;49.092;8.516;2022-08-01T13:42:58;1.95;;;1.10;;
12155;SDS011;6141;49.092;8.516;2022-08-01T14:05:58;2.00;;;1.10;;
12155;SDS011;6141;49.092;8.516;2022-08-01T14:08:30;2.13;;;1.17;;
12155;SDS011;6141;49.092;8.516;2022-08-01T14:11:03;3.83;;;1.00;;
12155;SDS011;6141;49.092;8.516;2022-08-01T14:13:36;3.80;;;1.10;;
12155;SDS011;6141;49.092;8.516;2022-08-01T14:22:16;2.65;;;1.15;;
12155;SDS011;6141;49.092;8.516;2022-08-01T14:30:18;4.43;;;1.10;;
12155;SDS011;6141;49.092;8.516;2022-08-01T14:37:12;1.40;;;0.90;;
12155;SDS011;6141;49.092;8.516;2022-08-01T14:41:34;3.13;;;1.03;;
12155;SDS011;6141;49.092;8.516;2022-08-01T14:44:16;2.73;;;1.10;;
12155;SDS011;6141;49.092;8.516;2022-08-01T14:47:31;1.20;;;1.10;;
12155;SDS011;6141;49.092;8.516;2022-08-01T15:21:58;2.07;;;0.97;;
12155;SDS011;6141;49.092;8.516;2022-08-01T15:30:34;3.20;;;1.00;;
12155;SDS011;6141;49.092;8.516;2022-08-01T15:34:11;2.33;;;1.00;;
12155;SDS011;6141;49.092;8.516;2022-08-01T15:37:58;2.93;;;0.90;;
12155;SDS011;6141;49.092;8.516;2022-08-01T15:41:31;0.80;;;0.80;;
12155;SDS011;6141;49.092;8.516;2022-08-01T15:44:51;4.77;;;1.47;;
12155;SDS011;6141;49.092;8.516;2022-08-01T15:48:45;2.03;;;1.10;;
12155;SDS011;6141;49.092;8.516;2022-08-01T16:03:37;2.60;;;0.80;;
12155;SDS011;6141;49.092;8.516;2022-08-01T16:14:30;2.83;;;1.63;;
12155;SDS011;6141;49.092;8.516;2022-08-01T16:17:52;1.37;;;1.10;;
12155;SDS011;6141;49.092;8.516;2022-08-01T16:20:37;1.57;;;1.00;;
12155;SDS011;6141;49.092;8.516;2022-08-01T16:27:58;4.47;;;1.10;;
12155;SDS011;6141;49.092;8.516;2022-08-01T16:31:15;3.43;;;1.00;;
12155;SDS011;6141;49.092;8.516;2022-08-01T16:35:22;4.00;;;0.90;;
12155;SDS011;6141;49.092;8.516;2022-08-01T17:15:14;1.70;;;0.70;;
12155;SDS011;6141;49.092;8.516;2022-08-01T17:18:39;3.47;;;0.80;;
12155;SDS011;6141;49.092;8.516;2022-08-01T17:21:42;1.50;;;0.87;;
12155;SDS011;6141;49.092;8.516;2022-08-01T17:24:58;0.90;;;0.80;;
12155;SDS011;6141;49.092;8.516;2022-08-01T18:38:08;2.00;;;0.77;;
12155;SDS011;6141;49.092;8.516;2022-08-01T19:01:33;1.40;;;1.00;;
12155;SDS011;6141;49.092;8.516;2022-08-01T19:06:47;1.83;;;0.80;;
12155;SDS011;6141;49.092;8.516;2022-08-01T21:55:27;1.67;;;1.07;;
12155;SDS011;6141;49.092;8.516;2022-08-01T21:58:38;2.13;;;1.20;;
12155;SDS011;6141;49.092;8.516;2022-08-01T22:01:46;4.60;;;0.90;;
12155;SDS011;6141;49.092;8.516;2022-08-01T22:48:55;1.53;;;1.00;;
12155;SDS011;6141;49.092;8.516;2022-08-01T23:04:45;3.70;;;1.10;;
12155;SDS011;6141;49.092;8.516;2022-08-01T23:09:32;3.83;;;1.03;;
12155;SDS011;6141;49.092;8.516;2022-08-01T23:13:37;2.17;;;1.10;;
12155;SDS011;6141;49.092;8.516;2022-08-01T23:19:39;5.60;;;1.00;;
12155;SDS011;6141;49.092;8.516;2022-08-01T23:22:32;2.60;;;1.20;;
12155;SDS011;6141;49.092;8.516;2022-08-01T23:25:27;3.83;;;1.23;;
12155;SDS011;6141;49.092;8.516;2022-08-01T23:28:33;2.27;;;1.10;;
12155;SDS011;6141;49.092;8.516;2022-08-01T23:32:37;1.83;;;1.17;;
12155;SDS011;6141;49.092;8.516;2022-08-01T23:36:39;6.70;;;1.10;;
12155;SDS011;6141;49.092;8.516;2022-08-01T23:41:00;3.10;;;1.00;;
12155;SDS011;6141;49.092;8.516;2022-08-01T23:47:37;3.57;;;1.17;;
12155;SDS011;6141;49.092;8.516;2022-08-01T23:52:54;1.67;;;1.10;;
